createdAt,value
2022-08-04T00:01:09.654Z,47.07
2022-08-04T00:03:45.797Z,47.16
2022-08-04T00:06:26.191Z,46.96
2022-08-04T00:08:59.268Z,47.62
2022-08-04T00:11:31.486Z,47.50
2022-08-04T00:14:04.760Z,47.28
2022-08-04T00:16:38.063Z,47.60
2022-08-04T00:19:13.105Z,47.58
2022-08-04T00:21:47.398Z,47.75
2022-08-04T00:24:17.266Z,47.89
2022-08-04T00:26:46.675Z,47.91
2022-08-04T00:29:16.823Z,47.87
2022-08-04T00:31:57.001Z,48.01
2022-08-04T00:34:28.050Z,48.22
2022-08-04T00:36:58.605Z,48.49
2022-08-04T00:39:28.011Z,48.58
2022-08-04T00:42:19.122Z,48.62
2022-08-04T00:45:13.188Z,48.76
2022-08-04T00:47:59.193Z,48.77
2022-08-04T00:50:42.242Z,49.06
2022-08-04T00:53:17.876Z,49.10
2022-08-04T00:56:22.110Z,49.16
2022-08-04T00:59:04.816Z,49.14
2022-08-04T01:02:02.081Z,49.52
2022-08-04T01:04:47.036Z,49.67
2022-08-04T01:07:31.588Z,49.69
2022-08-04T01:10:07.824Z,49.67
2022-08-04T01:13:00.093Z,49.88
2022-08-04T01:15:59.357Z,49.77
2022-08-04T01:18:35.888Z,49.92
2022-08-04T01:21:41.167Z,50.37
2022-08-04T01:24:27.357Z,49.86
2022-08-04T01:27:04.052Z,50.10
2022-08-04T01:29:46.474Z,50.76
2022-08-04T01:32:25.750Z,50.33
2022-08-04T01:35:02.423Z,50.38
2022-08-04T01:37:50.644Z,50.48
2022-08-04T01:40:20.424Z,50.74
2022-08-04T01:42:53.830Z,50.99
2022-08-04T01:45:26.464Z,50.96
2022-08-04T01:47:58.820Z,51.22
2022-08-04T01:50:28.487Z,51.42
2022-08-04T01:52:57.644Z,51.56
2022-08-04T01:55:55.262Z,51.66
2022-08-04T01:58:20.995Z,51.83
2022-08-04T02:00:58.405Z,51.88
2022-08-04T02:04:20.113Z,51.94
2022-08-04T02:06:27.926Z,51.73
2022-08-04T02:09:06.563Z,52.14
2022-08-04T02:11:35.630Z,52.21
2022-08-04T02:14:36.408Z,52.11
2022-08-04T02:17:12.264Z,52.56
2022-08-04T02:19:56.582Z,52.65
2022-08-04T02:22:28.356Z,52.59
2022-08-04T02:25:02.172Z,52.71
2022-08-04T02:28:00.577Z,52.87
2022-08-04T02:30:41.719Z,53.32
2022-08-04T02:33:18.390Z,53.24
2022-08-04T02:35:47.747Z,54.13
2022-08-04T02:38:32.667Z,53.60
2022-08-04T02:41:03.086Z,53.70
2022-08-04T02:43:51.981Z,53.37
2022-08-04T02:46:23.125Z,53.61
2022-08-04T02:48:54.759Z,53.12
2022-08-04T02:51:30.023Z,53.15
2022-08-04T02:54:00.084Z,53.26
2022-08-04T02:56:31.493Z,53.25
2022-08-04T02:59:03.039Z,53.92
2022-08-04T03:01:32.126Z,53.68
2022-08-04T03:04:24.721Z,53.79
2022-08-04T03:07:25.685Z,54.16
2022-08-04T03:10:31.424Z,53.85
2022-08-04T03:13:29.117Z,53.17
2022-08-04T03:16:04.689Z,53.83
2022-08-04T03:19:06.831Z,52.96
2022-08-04T03:22:01.899Z,52.41
2022-08-04T03:25:21.095Z,52.67
2022-08-04T03:28:19.536Z,50.57
2022-08-04T03:31:07.643Z,50.63
2022-08-04T03:33:53.143Z,50.14
2022-08-04T03:36:54.514Z,49.96
2022-08-04T03:40:16.422Z,49.93
2022-08-04T03:43:07.005Z,49.82
2022-08-04T03:46:25.684Z,49.35
2022-08-04T03:49:34.044Z,50.47
2022-08-04T03:52:29.388Z,49.48
2022-08-04T03:55:39.143Z,49.79
2022-08-04T03:58:44.411Z,48.96
2022-08-04T04:02:01.325Z,49.41
2022-08-04T04:04:48.033Z,49.64
2022-08-04T04:07:39.817Z,50.17
2022-08-04T04:10:23.337Z,49.77
2022-08-04T04:13:29.712Z,50.45
2022-08-04T04:16:21.632Z,50.33
2022-08-04T04:19:23.909Z,50.45
2022-08-04T04:22:23.601Z,50.76
2022-08-04T04:25:12.684Z,51.11
2022-08-04T04:28:46.489Z,51.66
2022-08-04T04:30:58.737Z,51.13
2022-08-04T04:33:46.843Z,50.81
2022-08-04T04:36:26.489Z,51.45
2022-08-04T04:39:05.461Z,51.24
2022-08-04T04:41:57.025Z,51.25
2022-08-04T04:44:43.524Z,50.68
2022-08-04T04:47:43.371Z,50.84
2022-08-04T04:50:15.970Z,51.00
2022-08-04T04:52:50.946Z,50.79
2022-08-04T04:55:22.499Z,50.63
2022-08-04T04:57:55.349Z,50.91
2022-08-04T05:00:26.144Z,50.77
2022-08-04T05:03:27.687Z,50.10
2022-08-04T05:06:11.460Z,50.58
2022-08-04T05:09:19.327Z,50.79
2022-08-04T05:14:32.501Z,50.07
2022-08-04T05:15:30.489Z,49.30
2022-08-04T05:18:02.322Z,48.78
2022-08-04T05:20:36.833Z,48.48
2022-08-04T05:23:12.221Z,48.54
2022-08-04T05:25:58.633Z,48.95
2022-08-04T05:28:34.631Z,47.98
2022-08-04T05:31:20.236Z,47.89
2022-08-04T05:33:54.540Z,47.31
2022-08-04T05:36:40.507Z,47.29
2022-08-04T05:39:15.546Z,47.05
2022-08-04T05:41:48.077Z,46.55
2022-08-04T05:44:25.956Z,46.22
2022-08-04T05:46:57.847Z,45.74
2022-08-04T05:49:29.649Z,45.28
2022-08-04T05:52:02.095Z,45.24
2022-08-04T05:54:33.446Z,44.93
2022-08-04T05:57:04.702Z,45.36
2022-08-04T05:59:35.353Z,45.44
2022-08-04T06:02:06.046Z,44.83
2022-08-04T06:04:39.608Z,44.00
2022-08-04T06:07:09.253Z,44.12
2022-08-04T06:09:38.291Z,43.75
2022-08-04T06:12:10.384Z,44.18
2022-08-04T06:14:45.806Z,44.31
2022-08-04T06:18:33.434Z,43.64
2022-08-04T06:20:21.954Z,43.51
2022-08-04T06:22:55.736Z,42.62
2022-08-04T06:25:29.088Z,42.43
2022-08-04T06:27:58.829Z,43.29
2022-08-04T06:30:28.556Z,41.99
2022-08-04T06:33:03.814Z,41.58
2022-08-04T06:35:34.042Z,42.11
2022-08-04T06:38:04.126Z,41.09
2022-08-04T06:40:34.649Z,40.77
2022-08-04T06:43:06.180Z,40.75
2022-08-04T06:45:37.190Z,40.83
2022-08-04T06:48:08.580Z,40.16
2022-08-04T06:51:29.756Z,40.54
2022-08-04T06:53:27.533Z,40.10
2022-08-04T06:55:58.250Z,39.87
2022-08-04T06:58:28.224Z,39.63
2022-08-04T07:01:02.034Z,39.71
2022-08-04T07:03:33.562Z,37.73
2022-08-04T07:06:05.847Z,36.91
2022-08-04T07:08:42.937Z,38.24
2022-08-04T07:11:11.896Z,38.54
2022-08-04T07:13:45.214Z,37.83
2022-08-04T07:16:16.109Z,38.11
2022-08-04T07:18:46.159Z,38.78
2022-08-04T07:21:22.153Z,37.21
2022-08-04T07:23:51.235Z,37.40
2022-08-04T07:26:20.067Z,37.17
2022-08-04T07:28:48.767Z,36.66
2022-08-04T07:31:33.511Z,36.16
2022-08-04T07:34:17.224Z,36.08
2022-08-04T07:36:55.039Z,35.12
2022-08-04T07:39:28.970Z,36.00
2022-08-04T07:41:59.506Z,35.49
2022-08-04T07:44:32.089Z,34.42
2022-08-04T07:47:01.478Z,35.71
2022-08-04T07:49:54.669Z,35.45
2022-08-04T07:52:20.680Z,34.83
2022-08-04T07:54:50.757Z,35.29
2022-08-04T07:57:40.769Z,35.82
2022-08-04T08:00:10.896Z,35.27
2022-08-04T08:02:43.395Z,35.29
2022-08-04T08:05:16.977Z,34.34
2022-08-04T08:07:50.514Z,33.75
2022-08-04T08:10:22.818Z,34.73
2022-08-04T08:12:52.542Z,35.19
2022-08-04T08:15:21.846Z,35.75
2022-08-04T08:17:59.890Z,35.60
2022-08-04T08:20:34.207Z,35.67
2022-08-04T08:23:03.982Z,36.05
2022-08-04T08:25:33.880Z,35.20
2022-08-04T08:28:04.941Z,34.64
2022-08-04T08:30:34.362Z,34.60
2022-08-04T08:33:06.265Z,34.67
2022-08-04T08:35:54.066Z,35.30
2022-08-04T08:38:40.228Z,33.82
2022-08-04T08:41:37.622Z,34.82
2022-08-04T08:44:30.156Z,35.61
2022-08-04T08:47:21.293Z,34.83
2022-08-04T08:50:25.601Z,33.83
2022-08-04T08:53:11.277Z,34.51
2022-08-04T08:55:50.788Z,34.52
2022-08-04T08:58:41.059Z,33.66
2022-08-04T09:01:18.464Z,35.05
2022-08-04T09:04:34.142Z,32.83
2022-08-04T09:07:27.442Z,33.96
2022-08-04T09:10:07.480Z,34.30
2022-08-04T09:12:42.784Z,34.51
2022-08-04T09:15:16.393Z,33.23
2022-08-04T09:17:52.015Z,33.06
2022-08-04T09:20:30.609Z,32.91
2022-08-04T09:23:10.241Z,32.34
2022-08-04T09:25:48.200Z,33.10
2022-08-04T09:28:50.749Z,31.42
2022-08-04T09:31:16.824Z,30.57
2022-08-04T09:33:52.294Z,29.30
2022-08-04T09:36:29.932Z,28.95
2022-08-04T09:39:09.755Z,28.52
2022-08-04T09:41:52.600Z,27.61
2022-08-04T09:44:50.974Z,27.91
2022-08-04T09:47:26.302Z,26.97
2022-08-04T09:50:23.688Z,26.17
2022-08-04T09:53:00.845Z,25.33
2022-08-04T09:55:53.890Z,25.75
2022-08-04T09:58:37.833Z,25.65
2022-08-04T10:01:10.386Z,26.26
2022-08-04T10:03:43.236Z,27.16
2022-08-04T10:06:35.529Z,26.42
2022-08-04T10:09:22.531Z,27.04
2022-08-04T10:12:02.227Z,26.49
2022-08-04T10:14:40.269Z,26.66
2022-08-04T10:17:24.594Z,27.48
2022-08-04T10:20:04.585Z,27.31
2022-08-04T10:22:55.475Z,27.29
2022-08-04T10:26:07.242Z,26.44
2022-08-04T10:28:31.872Z,26.86
2022-08-04T10:31:08.337Z,27.99
2022-08-04T10:33:44.396Z,27.97
2022-08-04T10:36:18.706Z,27.32
2022-08-04T10:38:53.904Z,27.67
2022-08-04T10:41:48.890Z,27.80
2022-08-04T10:44:26.584Z,28.54
2022-08-04T10:47:02.140Z,28.38
2022-08-04T10:49:36.883Z,29.39
2022-08-04T10:52:11.450Z,28.86
2022-08-04T10:54:49.151Z,29.65
2022-08-04T10:57:24.975Z,30.12
2022-08-04T11:00:03.316Z,30.22
2022-08-04T11:02:42.908Z,30.10
2022-08-04T11:05:25.775Z,30.25
2022-08-04T11:07:58.622Z,30.92
2022-08-04T11:10:32.663Z,30.08
2022-08-04T11:13:22.014Z,29.95
2022-08-04T11:15:59.443Z,29.88
2022-08-04T11:18:42.439Z,29.95
2022-08-04T11:21:16.801Z,30.90
2022-08-04T11:23:54.723Z,30.44
2022-08-04T11:26:30.831Z,30.64
2022-08-04T11:29:07.129Z,30.71
2022-08-04T11:31:48.441Z,30.69
2022-08-04T11:34:23.415Z,30.64
2022-08-04T11:37:01.624Z,30.82
2022-08-04T11:39:35.083Z,31.25
2022-08-04T11:42:11.826Z,31.33
2022-08-04T11:44:45.391Z,31.49
2022-08-04T11:47:23.475Z,31.39
2022-08-04T11:49:59.881Z,30.35
2022-08-04T11:52:30.046Z,29.84
2022-08-04T11:55:00.891Z,30.95
2022-08-04T11:57:36.048Z,30.64
2022-08-04T12:00:10.466Z,30.83
2022-08-04T12:03:13.451Z,30.93
2022-08-04T12:05:53.896Z,31.04
2022-08-04T12:08:34.333Z,31.19
2022-08-04T12:11:15.034Z,32.21
2022-08-04T12:13:51.689Z,32.81
2022-08-04T12:16:30.711Z,32.80
2022-08-04T12:19:01.172Z,31.29
2022-08-04T12:21:43.494Z,31.59
2022-08-04T12:24:21.600Z,31.27
2022-08-04T12:26:54.297Z,31.46
2022-08-04T12:29:25.649Z,31.48
2022-08-04T12:31:58.245Z,31.96
2022-08-04T12:34:40.523Z,31.98
2022-08-04T12:37:20.533Z,31.40
2022-08-04T12:40:29.369Z,31.21
2022-08-04T12:42:56.151Z,31.20
2022-08-04T12:45:29.798Z,31.19
2022-08-04T12:48:00.219Z,31.61
2022-08-04T12:50:29.437Z,31.13
2022-08-04T12:53:02.679Z,30.86
2022-08-04T12:55:35.192Z,32.62
2022-08-04T12:58:13.040Z,30.70
2022-08-04T13:00:42.434Z,30.71
2022-08-04T13:03:13.532Z,30.87
2022-08-04T13:05:43.554Z,30.65
2022-08-04T13:08:15.544Z,29.80
2022-08-04T13:10:47.170Z,29.99
2022-08-04T13:13:19.946Z,30.33
2022-08-04T13:16:00.400Z,29.73
2022-08-04T13:18:32.373Z,29.87
2022-08-04T13:21:23.012Z,29.91
2022-08-04T13:24:21.973Z,30.12
2022-08-04T13:27:05.163Z,30.31
2022-08-04T13:29:59.660Z,29.98
2022-08-04T13:32:27.755Z,30.03
2022-08-04T13:34:58.724Z,30.49
2022-08-04T13:37:33.299Z,30.89
2022-08-04T13:40:05.444Z,29.65
2022-08-04T13:42:36.179Z,29.97
2022-08-04T13:45:07.491Z,29.55
2022-08-04T13:47:40.578Z,29.73
2022-08-04T13:50:23.719Z,29.63
2022-08-04T13:52:54.329Z,30.20
2022-08-04T13:55:27.289Z,29.90
2022-08-04T13:58:00.708Z,29.85
2022-08-04T14:00:46.633Z,29.64
2022-08-04T14:03:24.774Z,29.81
2022-08-04T14:06:15.981Z,29.73
2022-08-04T14:08:52.900Z,29.35
2022-08-04T14:12:06.143Z,30.38
2022-08-04T14:14:24.012Z,30.05
2022-08-04T14:17:02.247Z,30.14
2022-08-04T14:19:48.789Z,30.31
2022-08-04T14:22:31.385Z,31.43
2022-08-04T14:25:00.751Z,31.51
2022-08-04T14:27:32.105Z,31.06
2022-08-04T14:30:00.713Z,32.01
2022-08-04T14:32:29.382Z,31.87
2022-08-04T14:34:58.042Z,32.13
2022-08-04T14:37:48.279Z,32.62
2022-08-04T14:40:30.748Z,32.90
2022-08-04T14:43:05.143Z,33.26
2022-08-04T14:45:37.069Z,33.58
2022-08-04T14:48:09.167Z,32.85
2022-08-04T14:50:40.312Z,33.34
2022-08-04T14:53:11.015Z,33.04
2022-08-04T14:55:40.791Z,33.46
2022-08-04T14:58:35.158Z,33.63
2022-08-04T15:01:10.102Z,33.68
2022-08-04T15:03:50.341Z,34.24
2022-08-04T15:06:24.010Z,33.77
2022-08-04T15:08:53.701Z,33.97
2022-08-04T15:11:24.254Z,33.98
2022-08-04T15:13:56.185Z,34.15
2022-08-04T15:16:26.127Z,34.09
2022-08-04T15:18:56.907Z,34.46
2022-08-04T15:21:29.032Z,33.64
2022-08-04T15:23:59.188Z,33.81
2022-08-04T15:26:35.116Z,34.42
2022-08-04T15:29:16.486Z,34.56
2022-08-04T15:32:05.337Z,34.19
2022-08-04T15:34:49.209Z,34.53
2022-08-04T15:37:20.614Z,34.61
2022-08-04T15:39:54.343Z,34.79
2022-08-04T15:42:31.866Z,34.83
2022-08-04T15:46:37.057Z,34.46
2022-08-04T15:48:30.869Z,35.23
2022-08-04T15:51:15.502Z,35.06
2022-08-04T15:54:30.807Z,35.74
2022-08-04T15:57:03.541Z,35.39
2022-08-04T15:59:58.527Z,35.95
2022-08-04T16:02:44.426Z,36.14
2022-08-04T16:05:36.977Z,35.92
2022-08-04T16:08:16.617Z,35.37
2022-08-04T16:10:50.645Z,35.67
2022-08-04T16:13:22.327Z,35.69
2022-08-04T16:15:53.297Z,35.89
2022-08-04T16:18:39.528Z,35.43
2022-08-04T16:21:19.047Z,35.90
2022-08-04T16:24:08.615Z,36.26
2022-08-04T16:26:46.164Z,36.10
2022-08-04T16:29:35.354Z,35.74
2022-08-04T16:32:11.984Z,36.10
2022-08-04T16:34:49.749Z,35.94
2022-08-04T16:37:25.882Z,35.49
2022-08-04T16:40:35.393Z,35.48
2022-08-04T16:43:07.923Z,36.46
2022-08-04T16:45:48.504Z,36.17
2022-08-04T16:48:18.403Z,35.37
2022-08-04T16:51:05.890Z,35.49
2022-08-04T16:53:57.899Z,36.24
2022-08-04T16:56:33.248Z,36.35
2022-08-04T16:59:09.520Z,36.12
2022-08-04T17:01:38.833Z,36.24
2022-08-04T17:04:07.989Z,36.80
2022-08-04T17:06:43.008Z,36.24
2022-08-04T17:09:14.476Z,36.43
2022-08-04T17:11:44.464Z,36.38
2022-08-04T17:14:13.516Z,36.75
2022-08-04T17:16:43.775Z,36.74
2022-08-04T17:19:23.633Z,36.30
2022-08-04T17:22:04.997Z,36.34
2022-08-04T17:24:35.813Z,36.91
2022-08-04T17:28:09.036Z,37.27
2022-08-04T17:29:53.241Z,37.51
2022-08-04T17:32:23.498Z,37.64
2022-08-04T17:34:55.017Z,37.65
2022-08-04T17:37:52.904Z,37.42
2022-08-04T17:40:18.281Z,37.74
2022-08-04T17:44:03.084Z,37.77
2022-08-04T17:46:28.178Z,37.55
2022-08-04T17:48:59.608Z,38.34
2022-08-04T17:52:05.606Z,38.35
2022-08-04T17:54:37.336Z,38.46
2022-08-04T17:57:21.084Z,38.40
2022-08-04T17:59:57.438Z,38.46
2022-08-04T18:02:32.645Z,38.34
2022-08-04T18:05:07.581Z,38.56
2022-08-04T18:08:35.247Z,38.37
2022-08-04T18:10:54.615Z,39.13
2022-08-04T18:13:27.047Z,38.82
2022-08-04T18:16:03.193Z,38.55
2022-08-04T18:18:40.623Z,39.27
2022-08-04T18:21:17.652Z,39.96
2022-08-04T18:23:51.041Z,39.69
2022-08-04T18:29:31.126Z,39.71
2022-08-04T18:31:58.480Z,39.99
2022-08-04T18:34:26.989Z,40.44
2022-08-04T18:36:59.310Z,40.79
2022-08-04T18:40:10.637Z,40.10
2022-08-04T18:42:31.703Z,40.83
2022-08-04T18:45:07.291Z,39.01
2022-08-04T18:47:54.386Z,38.45
2022-08-04T18:51:01.239Z,38.90
2022-08-04T18:53:13.626Z,39.80
2022-08-04T18:55:56.959Z,39.96
2022-08-04T18:58:28.195Z,39.98
2022-08-04T19:01:00.596Z,39.94
2022-08-04T19:03:30.575Z,39.94
2022-08-04T19:06:00.067Z,39.98
2022-08-04T19:08:33.413Z,39.26
2022-08-04T19:11:37.683Z,39.59
2022-08-04T19:13:58.139Z,40.10
2022-08-04T19:16:28.538Z,40.08
2022-08-04T19:18:57.403Z,40.14
2022-08-04T19:22:02.031Z,40.14
2022-08-04T19:24:31.614Z,39.81
2022-08-04T19:27:07.368Z,38.74
2022-08-04T19:29:40.681Z,38.11
2022-08-04T19:32:14.900Z,38.68
2022-08-04T19:34:47.097Z,39.51
2022-08-04T19:40:07.279Z,40.24
2022-08-04T19:42:37.972Z,39.78
2022-08-04T19:45:08.739Z,39.74
2022-08-04T19:48:16.234Z,39.80
2022-08-04T19:50:26.251Z,40.16
2022-08-04T19:52:55.064Z,40.36
2022-08-04T19:55:36.709Z,39.66
2022-08-04T19:58:07.397Z,38.99
2022-08-04T20:00:40.745Z,39.76
2022-08-04T20:03:20.299Z,40.02
2022-08-04T20:08:38.800Z,40.24
2022-08-04T20:11:18.891Z,40.56
2022-08-04T20:16:37.989Z,40.00
2022-08-04T20:19:10.612Z,39.85
2022-08-04T20:21:55.506Z,40.14
2022-08-04T20:24:38.645Z,39.85
2022-08-04T20:27:15.955Z,39.38
2022-08-04T20:29:49.154Z,39.98
2022-08-04T20:32:22.481Z,39.64
2022-08-04T20:34:52.181Z,40.50
2022-08-04T20:37:23.271Z,40.49
2022-08-04T20:39:55.615Z,40.77
2022-08-04T20:42:26.977Z,41.01
2022-08-04T20:44:56.924Z,40.86
2022-08-04T20:47:27.083Z,40.51
2022-08-04T20:50:04.897Z,40.96
2022-08-04T20:52:33.615Z,41.78
2022-08-04T20:55:03.078Z,41.65
2022-08-04T20:57:49.440Z,41.84
2022-08-04T21:00:30.050Z,42.17
2022-08-04T21:03:00.771Z,41.77
2022-08-04T21:05:31.500Z,42.73
2022-08-04T21:10:49.916Z,42.68
2022-08-04T21:13:18.432Z,42.74
2022-08-04T21:15:58.648Z,42.87
2022-08-04T21:18:29.621Z,42.36
2022-08-04T21:20:58.267Z,42.40
2022-08-04T21:23:26.832Z,42.89
2022-08-04T21:25:58.248Z,43.03
2022-08-04T21:28:26.732Z,43.04
2022-08-04T21:30:55.973Z,42.79
2022-08-04T21:33:49.012Z,43.16
2022-08-04T21:36:19.935Z,43.49
2022-08-04T21:38:51.420Z,43.41
2022-08-04T21:41:25.039Z,43.67
2022-08-04T21:43:56.484Z,43.76
2022-08-04T21:46:30.305Z,43.85
2022-08-04T21:49:00.130Z,44.32
2022-08-04T21:51:57.895Z,44.13
2022-08-04T21:54:22.382Z,44.36
2022-08-04T21:56:52.713Z,44.60
2022-08-04T21:59:23.663Z,44.46
2022-08-04T22:02:01.723Z,44.82
2022-08-04T22:04:31.122Z,44.77
2022-08-04T22:07:03.284Z,44.80
2022-08-04T22:09:38.924Z,44.98
2022-08-04T22:12:12.003Z,45.17
2022-08-04T22:14:41.856Z,45.12
2022-08-04T22:17:18.948Z,45.40
2022-08-04T22:19:55.852Z,45.68
2022-08-04T22:22:29.697Z,45.72
2022-08-04T22:25:06.245Z,45.91
2022-08-04T22:28:00.732Z,46.08
2022-08-04T22:30:36.379Z,46.25
2022-08-04T22:33:08.146Z,46.14
2022-08-04T22:35:49.009Z,46.30
2022-08-04T22:38:24.395Z,46.16
2022-08-04T22:41:07.738Z,46.45
2022-08-04T22:43:37.583Z,46.60
2022-08-04T22:46:08.193Z,46.61
2022-08-04T22:48:39.732Z,46.72
2022-08-04T22:51:12.891Z,46.84
2022-08-04T22:53:49.159Z,47.00
2022-08-04T22:56:21.549Z,46.78
2022-08-04T22:59:06.756Z,46.92
2022-08-04T23:01:59.985Z,46.30
2022-08-04T23:04:27.468Z,46.53
2022-08-04T23:06:55.901Z,46.79
2022-08-04T23:09:49.425Z,46.62
2022-08-04T23:12:24.308Z,46.77
2022-08-04T23:14:56.098Z,46.69
2022-08-04T23:17:25.078Z,47.19
2022-08-04T23:19:57.593Z,46.93
2022-08-04T23:22:37.121Z,47.37
2022-08-04T23:25:16.318Z,47.14
2022-08-04T23:27:50.500Z,47.32
2022-08-04T23:30:21.908Z,47.24
2022-08-04T23:32:58.640Z,47.81
2022-08-04T23:35:27.161Z,48.32
2022-08-04T23:37:57.919Z,48.12
2022-08-04T23:40:34.210Z,48.38
2022-08-04T23:43:17.558Z,48.52
2022-08-04T23:46:04.228Z,48.24
2022-08-04T23:48:36.424Z,48.41
2022-08-04T23:51:13.754Z,48.75
2022-08-04T23:54:03.244Z,48.78
2022-08-04T23:56:34.623Z,48.95
2022-08-04T23:59:03.913Z,49.81
